Airfield :
LOGIN :

Register | Disclaimer

   EN    FR    IT 

 










Legend :    VFR   Marginal VFR   IFR   Intensive IFR   Very Intensive IFR
Visi :
Ceiling :
>= 8 km
>= 3000ft
5 to 8 km
1000 to 3000 ft
1500m to 5 km
500 to 1000 ft
800 to 1500m
200 to 500 ft
< 800m
< 200 ft
Symbols :   Thunderstorms  Fog  Heavy snow  Heavy precipitations  Wind > 20 kt
SIGMETs :     Misc.  Thunderstorms  Icing  Turbulence  Mountain Waves  Volcanic Ashes







- Airport Elevation : 202 ft
- IATA code : LGW
- Download approach charts


EGKK - London Gatwick

CURRENT METAR :
  • 220120Z VRB02KT 8000 BKN017 09/08 Q1030

EXPIRED METARs :
  • 220050Z VRB03KT 9999 BKN017 10/08 Q1030
  • 220020Z 16004KT 9999 BKN017 10/08 Q1030
  • 212350Z 15003KT 9999 BKN019 10/08 Q1031
  • 212320Z VRB03KT 9999 BKN021 10/08 Q1031
  • 212250Z VRB03KT 9999 BKN021 11/08 Q1031

TAF TAF EGKK
Valid from the 22 at 00:00 until the 23 at 06:00 UTC


212257Z 2200/2306 21005KT 9999 BKN020
TEMPO 2200/2211 8000 BKN012
PROB30
TEMPO 2203/2207 4000 BR BKN004
PROB30
TEMPO 2300/2306 8000
No reported NOTAMs for that airfield.



MET'MAP, your aeronautical weather chart ! - Copyright ORBIFLY December 2007 - Disclaimer

ORBIFLY MET'MAP TEAM :

Programming & Development : Alexandra Zaïnal
Concept & Development : Baudouin d'Aumeries
Co-Development & Prog : Marc-Olivier Méhu
Technical & hardware support : Manuel Goepfert

Contact : metmap@orbifly.com




SOURCES & CREDITS :

   NOAA